Bartonsville, Vermont
Current Conditions -  °F | °C
As of 3:54 PM on Saturday 25 Oct 2014 (Local Time) from KVSF Reporting Station
Clear Clear  
Wind Chill: 60°   Ceiling: Unl
Heat Index: 60°   Visibility: 10mi
Dew Point: 41°   Wind: 10mph
Humidity: 49%   Direction: 230°SW
Pressure: 29.59"   Gusts: 20mph
Location:  43.2811°N, 72.6352°W
Report Text: KVSF 251954Z AUTO 23009G17KT 10SM CLR 16/05 A2959 RMK AO2 SLP023 T01560050
Loading
Personal Weather Stations






























Interactive Weather Map
Tropical Storm Tracking
New forecast layout! Learn more

10-Day Weather Forecast

Advertisements
Track Severe Weather on mobile